Time;durP1;ratioP1;P1;durP2;ratioP2;P2;SDS_P1;SDS_P2;PMS_P1;PMS_P2;Temp;Humidity;BMP_temperature;BMP_pressure;BME280_temperature;BME280_humidity;BME280_pressure;Samples;Min_cycle;Max_cycle;Signal;HPM_P1;HPM_P2
2021/03/20 00:01:06;;;;;;;30.47;13.93;;;-2.10;99.90;;;;;;4205771;28;20394;-60
2021/03/20 00:03:07;;;;;;;26.03;14.60;;;-2.00;99.90;;;;;;4207835;28;20354;-60
2021/03/20 00:05:09;;;;;;;29.10;14.20;;;-2.10;99.90;;;;;;4207952;28;21110;-59
2021/03/20 00:07:10;;;;;;;28.57;13.57;;;-2.10;99.90;;;;;;4207338;28;20273;-60
2021/03/20 00:09:15;;;;;;;26.83;13.13;;;-2.10;99.90;;;;;;4207889;28;20801;-61
2021/03/20 00:11:17;;;;;;;30.17;13.57;;;-2.10;99.90;;;;;;4206934;28;20302;-60
2021/03/20 00:13:20;;;;;;;26.60;13.60;;;-2.10;99.90;;;;;;4208106;28;20261;-61
2021/03/20 00:15:24;;;;;;;28.60;13.20;;;-2.10;99.90;;;;;;4203785;28;20292;-59
2021/03/20 00:17:25;;;;;;;27.93;13.87;;;-2.10;99.90;;;;;;4207791;28;20329;-60
2021/03/20 00:19:27;;;;;;;31.33;13.70;;;-2.10;99.90;;;;;;4207188;28;20269;-58
2021/03/20 00:21:28;;;;;;;26.40;13.43;;;-2.10;99.90;;;;;;4208002;28;20764;-60
2021/03/20 00:23:29;;;;;;;24.20;12.27;;;-2.20;99.90;;;;;;4207423;28;20281;-57
2021/03/20 00:25:30;;;;;;;26.63;13.77;;;-2.10;99.90;;;;;;4207858;28;20322;-61
2021/03/20 00:27:33;;;;;;;21.63;11.37;;;-2.10;99.90;;;;;;4207551;28;20278;-60
2021/03/20 00:29:34;;;;;;;20.10;11.57;;;-2.20;99.90;;;;;;4206397;28;20314;-60
2021/03/20 00:31:37;;;;;;;22.40;11.30;;;-2.20;99.90;;;;;;4207843;28;20269;-58
2021/03/20 00:33:40;;;;;;;24.20;11.67;;;-2.20;99.90;;;;;;4207656;28;20740;-60
2021/03/20 00:35:41;;;;;;;23.27;12.10;;;-2.30;99.90;;;;;;4207656;28;20314;-61
2021/03/20 00:37:42;;;;;;;24.73;12.63;;;-2.20;99.90;;;;;;4207726;28;20343;-56
2021/03/20 00:39:44;;;;;;;23.60;11.90;;;-2.20;99.90;;;;;;4207737;28;20781;-59
2021/03/20 00:41:45;;;;;;;23.13;11.47;;;-2.20;99.90;;;;;;4206883;28;21110;-60
2021/03/20 00:43:46;;;;;;;18.40;10.20;;;-2.30;99.90;;;;;;4207585;28;20325;-60
2021/03/20 00:45:47;;;;;;;20.93;10.17;;;-2.30;99.90;;;;;;4207165;28;20276;-60
2021/03/20 00:47:49;;;;;;;22.70;10.60;;;-2.30;99.90;;;;;;4195086;28;20335;-59
2021/03/20 00:49:50;;;;;;;20.17;9.27;;;-2.30;99.90;;;;;;4190442;28;20271;-54
2021/03/20 00:51:51;;;;;;;22.23;9.60;;;-2.30;99.90;;;;;;4207210;28;20284;-60
2021/03/20 00:53:52;;;;;;;16.87;8.63;;;-2.30;99.90;;;;;;4207333;28;20318;-60
2021/03/20 00:55:53;;;;;;;18.30;9.67;;;-2.30;99.90;;;;;;4206031;28;20276;-59
2021/03/20 00:57:55;;;;;;;19.27;9.53;;;-2.30;99.90;;;;;;4207145;28;20264;-59
2021/03/20 00:59:56;;;;;;;16.53;9.27;;;-2.30;99.90;;;;;;4207080;28;20264;-60
2021/03/20 01:01:57;;;;;;;16.13;8.63;;;-2.30;99.90;;;;;;4207255;28;20293;-60
2021/03/20 01:03:58;;;;;;;15.87;8.33;;;-2.30;99.90;;;;;;4205869;28;20706;-54
2021/03/20 01:05:59;;;;;;;15.37;8.53;;;-2.30;99.90;;;;;;4207194;28;20338;-61
2021/03/20 01:08:00;;;;;;;14.30;8.07;;;-2.30;99.90;;;;;;4207047;28;20277;-63
2021/03/20 01:10:08;;;;;;;14.90;7.43;;;-2.30;99.90;;;;;;4194245;28;20281;-60
2021/03/20 01:12:10;;;;;;;13.77;7.10;;;-2.40;99.90;;;;;;4189730;28;20652;-57
2021/03/20 01:14:11;;;;;;;16.97;8.00;;;-2.40;99.90;;;;;;4191863;28;21076;-61
2021/03/20 01:16:13;;;;;;;17.63;8.53;;;-2.40;99.90;;;;;;4190334;28;20335;-59
2021/03/20 01:18:14;;;;;;;15.73;8.57;;;-2.40;99.90;;;;;;4190862;28;20295;-60
2021/03/20 01:20:16;;;;;;;18.77;9.37;;;-2.40;99.90;;;;;;4190397;28;20281;-60
2021/03/20 01:22:17;;;;;;;17.77;9.40;;;-2.50;99.90;;;;;;4190197;28;20297;-60
2021/03/20 01:24:18;;;;;;;17.63;9.23;;;-2.50;99.90;;;;;;4190226;28;20278;-61
2021/03/20 01:26:19;;;;;;;18.07;9.43;;;-2.50;99.90;;;;;;4190129;28;21067;-61
2021/03/20 01:28:28;;;;;;;21.70;9.73;;;-2.60;99.90;;;;;;4190591;28;20281;-61
2021/03/20 01:30:33;;;;;;;18.47;9.23;;;-2.60;99.90;;;;;;4190341;28;20741;-61
2021/03/20 01:32:35;;;;;;;19.37;9.37;;;-2.60;99.90;;;;;;4189643;28;20319;-61
2021/03/20 01:34:36;;;;;;;16.30;9.37;;;-2.60;99.90;;;;;;4190159;28;20273;-63
2021/03/20 01:36:37;;;;;;;20.03;10.40;;;-2.70;99.90;;;;;;4192737;28;20330;-61
2021/03/20 01:38:39;;;;;;;21.43;9.60;;;-2.70;99.90;;;;;;4206565;28;20265;-60
2021/03/20 01:40:43;;;;;;;18.87;9.70;;;-2.70;99.90;;;;;;4205800;28;20272;-59
2021/03/20 01:42:45;;;;;;;18.57;9.03;;;-2.70;99.90;;;;;;4207072;28;20599;-61
2021/03/20 01:45:13;;;;;;;19.07;9.10;;;-2.70;99.90;;;;;;4207003;28;20264;-60
2021/03/20 01:47:17;;;;;;;15.73;8.27;;;-2.70;99.90;;;;;;4206667;28;20269;-60
2021/03/20 01:49:33;;;;;;;17.57;9.50;;;-2.80;99.90;;;;;;4206377;28;20290;-60
2021/03/20 01:51:34;;;;;;;16.97;9.50;;;-2.80;99.90;;;;;;4206647;28;20252;-59
2021/03/20 01:53:45;;;;;;;22.63;9.37;;;-2.80;99.90;;;;;;4206459;28;20722;-59
2021/03/20 01:55:47;;;;;;;22.33;10.67;;;-2.90;99.90;;;;;;4203176;28;20261;-55
2021/03/20 01:57:53;;;;;;;19.43;10.13;;;-2.90;99.90;;;;;;4206477;28;20282;-60
2021/03/20 01:59:56;;;;;;;15.77;9.10;;;-3.00;99.90;;;;;;4206555;28;20268;-60
2021/03/20 02:01:57;;;;;;;19.10;10.02;;;-3.00;99.90;;;;;;4206379;28;20288;-60
2021/03/20 02:04:00;;;;;;;21.77;10.37;;;-3.00;99.90;;;;;;4197568;28;20044;-59
2021/03/20 02:06:01;;;;;;;18.80;8.87;;;-3.00;99.90;;;;;;4189750;28;20254;-60
2021/03/20 02:08:05;;;;;;;16.20;8.63;;;-3.10;99.90;;;;;;4188834;28;20269;-61
2021/03/20 02:10:07;;;;;;;14.03;7.27;;;-3.10;99.90;;;;;;4189711;28;20684;-60
2021/03/20 02:12:23;;;;;;;18.43;9.50;;;-3.10;99.90;;;;;;4188570;28;20794;-60
2021/03/20 02:14:36;;;;;;;18.17;8.63;;;-3.10;99.90;;;;;;4190024;28;20265;-60
2021/03/20 02:17:15;;;;;;;16.30;8.30;;;-3.10;99.90;;;;;;4188669;28;20311;-59
2021/03/20 02:19:40;;;;;;;17.27;9.00;;;-3.10;99.90;;;;;;4189601;28;20265;-60
2021/03/20 02:21:52;;;;;;;16.85;9.50;;;-3.20;99.90;;;;;;4189640;28;20344;-59
2021/03/20 02:24:34;;;;;;;16.57;9.40;;;-3.20;99.90;;;;;;4188245;28;20032;-61
2021/03/20 02:26:47;;;;;;;16.60;8.00;;;-3.20;99.90;;;;;;4187886;28;20273;-55
2021/03/20 02:29:20;;;;;;;15.93;8.70;;;-3.20;99.90;;;;;;4186666;28;20327;-60
2021/03/20 02:31:39;;;;;;;16.17;8.90;;;-3.20;99.90;;;;;;4187359;28;20101;-57
2021/03/20 02:33:40;;;;;;;14.77;7.75;;;-3.30;99.90;;;;;;4188373;28;20672;-59
2021/03/20 02:35:50;;;;;;;14.70;8.00;;;-3.30;99.90;;;;;;4189410;28;20466;-63
2021/03/20 02:38:17;;;;;;;15.60;8.20;;;-3.30;99.90;;;;;;4188398;28;20644;-61
2021/03/20 02:40:36;;;;;;;14.23;7.50;;;-3.30;99.90;;;;;;4189200;28;20442;-61
2021/03/20 02:42:53;;;;;;;18.08;8.35;;;-3.40;99.90;;;;;;4189501;28;20451;-67
2021/03/20 02:45:11;;;;;;;18.40;8.65;;;-3.40;99.90;;;;;;4189441;28;20431;-59
2021/03/20 02:47:21;;;;;;;17.60;8.13;;;-3.40;99.90;;;;;;4188208;28;20032;-60
2021/03/20 02:49:50;;;;;;;16.98;8.93;;;-3.40;99.90;;;;;;4189081;28;20102;-66
2021/03/20 02:52:23;;;;;;;16.70;8.85;;;-3.50;99.90;;;;;;4189985;28;20036;-58
2021/03/20 02:54:48;;;;;;;19.60;9.73;;;-3.40;99.90;;;;;;4188394;28;20059;-60
2021/03/20 02:57:08;;;;;;;16.42;8.57;;;-3.50;99.90;;;;;;4188943;28;20082;-60
2021/03/20 02:59:14;;;;;;;14.88;8.27;;;-3.50;99.90;;;;;;4189018;28;20838;-58
2021/03/20 03:01:19;;;;;;;16.23;8.00;;;-3.50;99.90;;;;;;4189207;28;20516;-61
2021/03/20 03:03:29;;;;;;;16.50;7.75;;;-3.50;99.90;;;;;;4188498;28;20029;-59
2021/03/20 03:05:44;;;;;;;19.98;9.27;;;-3.60;99.90;;;;;;4188574;28;20141;-60
2021/03/20 03:07:58;;;;;;;18.40;8.82;;;-3.60;99.90;;;;;;4188742;28;20439;-59
2021/03/20 03:10:06;;;;;;;21.98;10.18;;;-3.60;99.90;;;;;;4188586;28;20032;-59
2021/03/20 03:12:26;;;;;;;18.88;9.35;;;-3.60;99.90;;;;;;4188463;28;20468;-59
2021/03/20 03:14:34;;;;;;;17.88;9.13;;;-3.60;99.90;;;;;;4188700;28;20444;-59
2021/03/20 03:16:42;;;;;;;19.70;8.95;;;-3.60;99.90;;;;;;4188204;28;20016;-59
2021/03/20 03:18:49;;;;;;;17.30;8.85;;;-3.50;99.90;;;;;;4189191;28;20029;-58
2021/03/20 03:20:54;;;;;;;16.33;8.25;;;-3.60;99.90;;;;;;4188567;28;20040;-60
2021/03/20 03:23:07;;;;;;;18.05;8.52;;;-3.50;99.90;;;;;;4189034;28;20090;-60
2021/03/20 03:25:11;;;;;;;15.67;8.00;;;-3.60;99.90;;;;;;4188112;28;20082;-63
2021/03/20 03:27:15;;;;;;;18.07;8.37;;;-3.60;99.90;;;;;;4188663;28;20753;-60
2021/03/20 03:29:23;;;;;;;15.82;8.70;;;-3.50;99.90;;;;;;4188134;28;20323;-61
2021/03/20 03:31:31;;;;;;;16.33;8.73;;;-3.60;99.90;;;;;;4188681;28;20024;-61
2021/03/20 03:33:45;;;;;;;15.50;8.52;;;-3.60;99.90;;;;;;4188280;28;20302;-68
2021/03/20 03:35:52;;;;;;;15.98;7.78;;;-3.60;99.90;;;;;;4188858;28;20101;-67
2021/03/20 03:38:25;;;;;;;18.30;9.35;;;-3.60;99.90;;;;;;4188465;28;20029;-61
2021/03/20 03:40:50;;;;;;;16.47;8.17;;;-3.60;99.90;;;;;;4186357;28;20098;-55
2021/03/20 03:42:52;;;;;;;21.23;8.73;;;-3.60;99.90;;;;;;4199423;28;20845;-60
2021/03/20 03:44:54;;;;;;;16.42;8.07;;;-3.70;99.90;;;;;;4205263;28;20610;-60
2021/03/20 03:46:56;;;;;;;15.47;7.23;;;-3.70;99.90;;;;;;4204907;28;20097;-56
2021/03/20 03:49:01;;;;;;;18.63;7.43;;;-3.70;99.90;;;;;;4204176;28;20743;-60
2021/03/20 03:51:12;;;;;;;17.23;8.37;;;-3.70;99.90;;;;;;4204714;28;20024;-57
2021/03/20 03:53:18;;;;;;;18.50;8.27;;;-3.70;99.90;;;;;;4205525;28;20326;-60
2021/03/20 03:55:20;;;;;;;16.77;7.53;;;-3.70;99.90;;;;;;4204615;28;20028;-59
2021/03/20 03:57:28;;;;;;;15.23;7.73;;;-3.70;99.90;;;;;;4204887;28;20265;-58
2021/03/20 04:00:01;;;;;;;15.07;7.60;;;-3.70;99.90;;;;;;4196677;28;20323;-60
2021/03/20 04:02:14;;;;;;;21.15;8.43;;;-3.80;99.90;;;;;;4188669;28;20040;-60
2021/03/20 04:04:49;;;;;;;16.58;7.75;;;-3.80;99.90;;;;;;4188098;28;20369;-59
2021/03/20 04:07:27;;;;;;;15.68;7.75;;;-3.80;99.90;;;;;;4194043;28;20040;-61
2021/03/20 04:09:55;;;;;;;15.40;6.25;;;-3.80;99.90;;;;;;4204642;28;20036;-60
2021/03/20 04:11:59;;;;;;;15.43;6.38;;;-3.80;99.90;;;;;;4186843;28;20036;-57
2021/03/20 04:14:41;;;;;;;15.30;7.22;;;-3.80;99.90;;;;;;4188150;28;20036;-60
2021/03/20 04:16:47;;;;;;;14.43;6.93;;;-3.70;99.90;;;;;;4188109;28;20032;-60
2021/03/20 04:19:09;;;;;;;15.33;7.73;;;-3.80;99.90;;;;;;4188116;28;20067;-56
2021/03/20 04:21:28;;;;;;;15.02;7.32;;;-3.80;99.90;;;;;;4191116;28;20265;-60
2021/03/20 04:23:35;;;;;;;14.90;7.55;;;-3.80;99.90;;;;;;4191130;28;20113;-60
2021/03/20 04:25:59;;;;;;;18.92;7.90;;;-3.90;99.90;;;;;;4189456;28;20831;-63
2021/03/20 04:28:26;;;;;;;12.10;6.88;;;-3.90;99.90;;;;;;4191411;28;20086;-58
2021/03/20 04:30:32;;;;;;;15.98;7.63;;;-4.00;99.90;;;;;;4186021;28;20925;-58
2021/03/20 04:32:55;;;;;;;19.05;7.82;;;-4.00;99.90;;;;;;4191448;28;20028;-60
2021/03/20 04:35:06;;;;;;;15.10;6.70;;;-4.00;99.90;;;;;;4191330;28;20032;-59
2021/03/20 04:37:14;;;;;;;16.95;7.38;;;-4.00;99.90;;;;;;4191153;28;20036;-61
2021/03/20 04:39:18;;;;;;;13.43;6.77;;;-4.00;99.90;;;;;;4189171;28;20028;-59
2021/03/20 04:41:21;;;;;;;15.02;7.57;;;-4.00;99.90;;;;;;4191275;28;20277;-60
2021/03/20 04:43:26;;;;;;;19.35;8.10;;;-4.00;99.90;;;;;;4190240;28;20146;-61
2021/03/20 04:45:44;;;;;;;15.63;7.60;;;-3.90;99.90;;;;;;4191021;28;20435;-59
2021/03/20 04:47:46;;;;;;;14.60;7.53;;;-3.80;99.90;;;;;;4190266;28;20032;-60
2021/03/20 04:49:53;;;;;;;17.15;7.13;;;-3.50;99.90;;;;;;4190957;28;20028;-56
2021/03/20 04:52:01;;;;;;;16.38;7.38;;;-3.20;99.90;;;;;;4190345;28;20037;-59
2021/03/20 04:54:08;;;;;;;16.87;7.97;;;-2.90;99.90;;;;;;4190681;28;20041;-59
2021/03/20 04:56:17;;;;;;;17.70;7.67;;;-2.60;99.90;;;;;;4191441;28;20257;-60
2021/03/20 04:58:36;;;;;;;15.67;8.10;;;-2.30;99.90;;;;;;4207475;28;20276;-59
2021/03/20 05:00:46;;;;;;;14.80;7.40;;;-1.90;99.90;;;;;;4197009;28;20769;-65
2021/03/20 05:02:50;;;;;;;17.33;8.07;;;-1.40;99.90;;;;;;4190967;28;20297;-59
2021/03/20 05:04:56;;;;;;;15.00;8.20;;;-1.10;99.90;;;;;;4190051;28;20098;-61
2021/03/20 05:07:00;;;;;;;14.43;7.63;;;-1.00;99.90;;;;;;4191075;28;20330;-65
2021/03/20 05:09:05;;;;;;;15.90;8.13;;;-0.80;99.90;;;;;;4190481;28;20266;-59
2021/03/20 05:11:26;;;;;;;14.33;7.27;;;-0.60;99.90;;;;;;4190391;28;20679;-59
2021/03/20 05:13:39;;;;;;;18.50;8.45;;;-0.50;99.90;;;;;;4190406;28;20386;-61
2021/03/20 05:15:40;;;;;;;18.70;8.20;;;-0.20;99.90;;;;;;4190880;28;20028;-58
2021/03/20 05:17:41;;;;;;;13.77;7.50;;;0.20;99.90;;;;;;4189541;28;20418;-59
2021/03/20 05:19:43;;;;;;;13.03;7.33;;;0.50;99.90;;;;;;4190438;28;20327;-61
2021/03/20 05:21:46;;;;;;;15.63;7.43;;;0.90;99.90;;;;;;4190592;28;20334;-61
2021/03/20 05:23:48;;;;;;;15.87;7.97;;;1.40;99.90;;;;;;4189883;28;20258;-59
2021/03/20 05:25:49;;;;;;;12.57;8.03;;;1.70;99.90;;;;;;4189943;28;20335;-60
2021/03/20 05:27:52;;;;;;;13.73;7.27;;;2.10;99.90;;;;;;4190404;28;20266;-57
2021/03/20 05:29:53;;;;;;;13.00;7.57;;;2.30;99.90;;;;;;4203399;28;20280;-60
2021/03/20 05:31:57;;;;;;;17.33;8.67;;;2.70;99.90;;;;;;4206804;28;20264;-62
2021/03/20 05:33:58;;;;;;;21.10;12.03;;;3.20;99.90;;;;;;4206510;28;20273;-60
2021/03/20 05:35:59;;;;;;;27.97;12.33;;;3.50;99.90;;;;;;4206045;28;20340;-60
2021/03/20 05:38:01;;;;;;;43.87;19.13;;;3.90;99.90;;;;;;4206562;28;20318;-60
2021/03/20 05:40:16;;;;;;;41.00;20.63;;;4.20;99.90;;;;;;4204547;28;20272;-60
2021/03/20 05:42:28;;;;;;;30.70;14.83;;;4.30;99.90;;;;;;4206422;28;20703;-60
2021/03/20 05:44:46;;;;;;;32.47;15.50;;;4.40;99.90;;;;;;4205899;28;20346;-60
2021/03/20 05:46:55;;;;;;;18.57;10.53;;;4.60;99.90;;;;;;4205679;28;20312;-59
2021/03/20 05:49:33;;;;;;;16.30;9.07;;;4.90;99.90;;;;;;4206534;28;20752;-60
2021/03/20 05:51:52;;;;;;;14.13;8.10;;;4.80;91.90;;;;;;4205370;28;20433;-60
2021/03/20 05:54:01;;;;;;;18.53;9.53;;;4.40;92.60;;;;;;4206211;28;20027;-60
2021/03/20 05:56:11;;;;;;;22.97;11.33;;;3.90;93.70;;;;;;4205961;28;20318;-59
2021/03/20 05:58:37;;;;;;;16.67;9.88;;;3.30;91.90;;;;;;4206051;28;20257;-60
2021/03/20 06:01:16;;;;;;;38.33;17.37;;;3.10;91.70;;;;;;4205681;28;20573;-60
2021/03/20 06:03:46;;;;;;;38.53;18.90;;;3.10;93.60;;;;;;4206369;28;20345;-61
2021/03/20 06:06:18;;;;;;;33.13;16.23;;;3.80;94.60;;;;;;4178745;28;20323;-61
2021/03/20 06:09:07;;;;;;;32.67;16.80;;;4.70;92.10;;;;;;4189191;28;20032;-61
2021/03/20 06:11:18;;;;;;;32.20;15.87;;;5.30;86.30;;;;;;4171854;28;20667;-62
2021/03/20 06:13:39;;;;;;;38.17;18.33;;;5.60;90.50;;;;;;4189131;28;20262;-63
2021/03/20 06:15:59;;;;;;;33.90;19.43;;;6.10;83.80;;;;;;4190272;28;20074;-59
2021/03/20 06:18:34;;;;;;;34.83;17.57;;;5.90;80.00;;;;;;4188644;28;20017;-69
2021/03/20 06:20:57;;;;;;;40.40;21.60;;;5.80;75.20;;;;;;4189621;28;20032;-59
2021/03/20 06:23:13;;;;;;;24.33;13.50;;;5.40;80.80;;;;;;4188505;28;20484;-60
2021/03/20 06:25:30;;;;;;;23.37;11.93;;;5.60;79.70;;;;;;4188091;28;20082;-59
2021/03/20 06:27:52;;;;;;;20.60;10.60;;;5.60;79.90;;;;;;4189025;28;20418;-60
2021/03/20 06:30:28;;;;;;;21.47;12.03;;;6.00;78.20;;;;;;4188520;28;20040;-69
2021/03/20 06:32:44;;;;;;;18.97;10.90;;;6.10;78.50;;;;;;4179817;28;20280;-64
2021/03/20 06:35:08;;;;;;;16.33;10.57;;;6.80;76.90;;;;;;4188846;28;20036;-59
2021/03/20 06:37:09;;;;;;;24.90;12.40;;;7.10;73.60;;;;;;4188832;28;20301;-59
2021/03/20 06:39:22;;;;;;;15.30;8.77;;;7.10;75.50;;;;;;4188606;28;20097;-58
2021/03/20 06:41:35;;;;;;;25.47;10.80;;;6.80;74.00;;;;;;4187421;28;20770;-59
2021/03/20 06:43:41;;;;;;;20.57;10.07;;;6.90;75.70;;;;;;4192199;28;20512;-59
2021/03/20 06:45:43;;;;;;;20.80;10.80;;;7.10;75.60;;;;;;4205274;28;20169;-62
2021/03/20 06:47:54;;;;;;;21.87;11.50;;;7.40;75.10;;;;;;4203854;28;20052;-60
2021/03/20 06:50:31;;;;;;;22.00;10.60;;;7.70;74.60;;;;;;4205335;28;20054;-58
2021/03/20 06:52:36;;;;;;;28.13;13.37;;;7.80;69.60;;;;;;4205973;28;20024;-66
2021/03/20 06:54:37;;;;;;;24.10;13.13;;;7.70;72.50;;;;;;4205121;28;20023;-58
2021/03/20 06:56:39;;;;;;;23.90;13.07;;;7.40;71.60;;;;;;4204485;28;20032;-56
2021/03/20 06:58:42;;;;;;;23.33;11.80;;;7.40;72.10;;;;;;4205116;28;20028;-57
2021/03/20 07:00:43;;;;;;;19.50;10.87;;;7.20;71.40;;;;;;4205149;28;20070;-57
2021/03/20 07:02:57;;;;;;;27.03;9.40;;;7.10;72.20;;;;;;4204743;28;20492;-60
2021/03/20 07:05:18;;;;;;;18.03;9.63;;;6.70;71.30;;;;;;4201700;28;20077;-60
2021/03/20 07:07:29;;;;;;;;;;;7.00;71.30;;;;;;4188726;28;20093;-60
2021/03/20 07:09:31;;;;;;;19.30;10.43;;;7.30;66.20;;;;;;4188195;28;20326;-57
2021/03/20 07:11:38;;;;;;;22.83;12.87;;;7.40;72.00;;;;;;4187844;28;20032;-59
2021/03/20 07:13:50;;;;;;;19.63;10.37;;;7.60;71.00;;;;;;4188379;28;20036;-60
2021/03/20 07:16:10;;;;;;;15.87;8.83;;;7.70;69.50;;;;;;4203965;28;20488;-60
2021/03/20 07:18:31;;;;;;;15.60;9.57;;;7.20;66.00;;;;;;4204573;28;20870;-63
2021/03/20 07:20:40;;;;;;;19.33;9.97;;;6.30;68.20;;;;;;4203283;28;20097;-61
2021/03/20 07:22:47;;;;;;;13.37;8.73;;;6.10;71.70;;;;;;4205099;28;20035;-63
2021/03/20 07:24:48;;;;;;;16.87;8.37;;;6.10;70.80;;;;;;4203363;28;20502;-60
2021/03/20 07:27:06;;;;;;;15.23;9.13;;;6.00;71.30;;;;;;4204950;28;20732;-66
2021/03/20 07:29:07;;;;;;;15.83;8.73;;;6.00;72.40;;;;;;4204701;28;20069;-60
2021/03/20 07:31:11;;;;;;;15.90;9.40;;;6.20;72.50;;;;;;4204277;28;20499;-61
2021/03/20 07:33:39;;;;;;;15.77;8.97;;;6.50;72.30;;;;;;4204756;28;20044;-63
2021/03/20 07:35:41;;;;;;;15.20;8.40;;;7.10;67.90;;;;;;4203288;28;20062;-61
2021/03/20 07:37:42;;;;;;;13.33;7.57;;;7.00;70.40;;;;;;4202732;28;20028;-60
2021/03/20 07:39:55;;;;;;;16.90;7.57;;;6.90;69.50;;;;;;4204229;28;20036;-62
2021/03/20 07:42:02;;;;;;;16.53;9.23;;;7.00;71.70;;;;;;4205016;28;20096;-62
2021/03/20 07:44:03;;;;;;;14.57;8.20;;;7.40;71.30;;;;;;4204746;28;20044;-62
2021/03/20 07:46:17;;;;;;;15.40;8.73;;;7.60;70.20;;;;;;4205004;28;20032;-55
2021/03/20 07:48:27;;;;;;;19.80;8.70;;;7.40;67.90;;;;;;4204061;28;20085;-65
2021/03/20 07:50:40;;;;;;;23.00;9.40;;;7.10;69.30;;;;;;4204431;28;20081;-61
2021/03/20 07:52:41;;;;;;;25.30;11.53;;;7.10;71.50;;;;;;4204894;28;20831;-61
2021/03/20 07:54:42;;;;;;;18.43;10.30;;;7.00;70.90;;;;;;4206598;28;20093;-62
2021/03/20 07:56:44;;;;;;;24.20;12.27;;;7.00;71.50;;;;;;4191176;28;20573;-64
2021/03/20 07:58:47;;;;;;;18.97;10.87;;;7.30;71.80;;;;;;4189559;28;20094;-59
2021/03/20 08:00:56;;;;;;;20.37;10.33;;;7.10;69.60;;;;;;4191195;28;20423;-60
2021/03/20 08:03:27;;;;;;;23.73;10.60;;;6.70;71.00;;;;;;4190675;28;20086;-65
2021/03/20 08:05:37;;;;;;;19.73;10.00;;;6.70;71.20;;;;;;4191268;28;20057;-61
2021/03/20 08:07:52;;;;;;;25.93;10.13;;;6.90;72.80;;;;;;4190407;28;20513;-60
2021/03/20 08:10:07;;;;;;;23.27;10.03;;;7.30;72.10;;;;;;4191154;28;20041;-62
2021/03/20 08:12:12;;;;;;;14.30;8.53;;;7.20;70.00;;;;;;4190744;28;20435;-62
2021/03/20 08:14:24;;;;;;;15.53;8.43;;;7.50;70.50;;;;;;4190681;28;20029;-58
2021/03/20 08:16:26;;;;;;;16.93;9.20;;;7.30;70.20;;;;;;4190415;28;20085;-60
2021/03/20 08:18:27;;;;;;;16.50;8.63;;;7.40;71.40;;;;;;4190808;28;20484;-63
2021/03/20 08:20:28;;;;;;;14.93;8.87;;;7.80;70.20;;;;;;4190280;28;20033;-59
2021/03/20 08:23:06;;;;;;;15.30;9.50;;;7.90;68.90;;;;;;4191649;28;20086;-60
2021/03/20 08:25:29;;;;;;;20.73;9.97;;;7.70;66.70;;;;;;4190672;28;20542;-63
2021/03/20 08:27:51;;;;;;;18.63;10.87;;;7.70;67.70;;;;;;4190565;28;20033;-60
2021/03/20 08:30:06;;;;;;;20.63;10.47;;;8.00;68.70;;;;;;4190895;28;20032;-62
2021/03/20 08:32:32;;;;;;;15.93;9.07;;;8.10;66.70;;;;;;4189712;28;20870;-60
2021/03/20 08:35:04;;;;;;;24.63;8.70;;;7.90;68.70;;;;;;4190642;28;20020;-58
2021/03/20 08:37:29;;;;;;;15.37;8.77;;;7.70;65.00;;;;;;4190419;28;20144;-58
2021/03/20 08:40:12;;;;;;;23.63;10.60;;;7.00;67.30;;;;;;4190973;28;20078;-60
2021/03/20 08:42:34;;;;;;;22.37;11.73;;;7.20;67.20;;;;;;4189569;28;20033;-60
2021/03/20 08:45:02;;;;;;;23.43;11.70;;;7.10;66.30;;;;;;4195527;28;20100;-59
2021/03/20 08:47:09;;;;;;;15.67;9.70;;;6.50;66.30;;;;;;4205552;28;20047;-59
2021/03/20 08:49:37;;;;;;;19.90;9.37;;;6.40;66.50;;;;;;4206484;28;20032;-62
2021/03/20 08:52:15;;;;;;;18.13;9.30;;;6.00;67.90;;;;;;4190370;28;20040;-58
2021/03/20 08:54:52;;;;;;;17.60;9.43;;;5.60;66.70;;;;;;4189971;28;20037;-60
2021/03/20 08:57:17;;;;;;;19.03;10.63;;;5.30;67.50;;;;;;4190371;28;20093;-64
2021/03/20 08:59:33;;;;;;;18.03;8.93;;;5.20;68.70;;;;;;4190247;28;20447;-64
2021/03/20 09:01:52;;;;;;;11.23;7.30;;;5.30;69.20;;;;;;4189695;28;20269;-57
2021/03/20 09:03:58;;;;;;;11.87;7.77;;;5.30;67.30;;;;;;4190422;28;20289;-59
2021/03/20 09:06:16;;;;;;;14.77;8.27;;;5.50;67.50;;;;;;4206605;28;20024;-56
2021/03/20 09:08:40;;;;;;;32.60;14.20;;;6.00;67.60;;;;;;4206934;28;20081;-57
2021/03/20 09:10:47;;;;;;;22.00;13.23;;;6.50;67.80;;;;;;4206402;28;20667;-59
2021/03/20 09:12:58;;;;;;;14.97;9.07;;;6.80;67.80;;;;;;4206318;28;20039;-63
2021/03/20 09:14:59;;;;;;;;;;;7.00;65.80;;;;;;4207195;28;20032;-67
2021/03/20 09:17:22;;;;;;;19.23;9.23;;;6.90;63.40;;;;;;4206629;28;19977;-62
2021/03/20 09:19:23;;;;;;;14.17;7.40;;;7.30;65.10;;;;;;4206311;28;20487;-60
2021/03/20 09:21:25;;;;;;;14.97;8.90;;;7.30;65.60;;;;;;4206854;28;20040;-62
2021/03/20 09:23:29;;;;;;;15.87;8.03;;;7.30;65.20;;;;;;4206227;28;20040;-65
2021/03/20 09:25:39;;;;;;;18.23;9.40;;;7.30;65.20;;;;;;4206310;28;20028;-66
2021/03/20 09:28:05;;;;;;;16.35;9.38;;;7.10;64.50;;;;;;4202683;28;20032;-67
2021/03/20 09:30:26;;;;;;;17.57;9.57;;;7.00;65.50;;;;;;4194282;28;20028;-63
2021/03/20 09:32:27;;;;;;;15.93;9.00;;;6.90;66.40;;;;;;4193379;28;20036;-63
2021/03/20 09:34:35;;;;;;;25.37;12.67;;;7.00;66.50;;;;;;4193795;28;20033;-61
2021/03/20 09:36:44;;;;;;;20.57;10.97;;;7.00;66.90;;;;;;4189804;28;20104;-69
2021/03/20 09:38:48;;;;;;;22.40;12.57;;;7.40;67.40;;;;;;4199262;28;20073;-59
2021/03/20 09:40:53;;;;;;;27.20;14.60;;;7.40;66.60;;;;;;4201829;28;20081;-67
2021/03/20 09:42:54;;;;;;;22.23;12.43;;;7.80;67.30;;;;;;4197372;28;20032;-61
2021/03/20 09:44:57;;;;;;;14.07;8.40;;;8.10;66.10;;;;;;4189515;28;20090;-61
2021/03/20 09:46:59;;;;;;;12.97;8.17;;;8.10;64.10;;;;;;4190788;28;20561;-59
2021/03/20 09:49:08;;;;;;;11.83;6.93;;;8.00;64.10;;;;;;4202436;28;20077;-58
2021/03/20 09:51:47;;;;;;;11.73;7.77;;;7.70;63.10;;;;;;4205866;28;20422;-62
2021/03/20 09:53:48;;;;;;;12.43;7.73;;;7.20;58.80;;;;;;4202098;28;20089;-63
2021/03/20 09:55:51;;;;;;;12.27;7.27;;;7.00;63.30;;;;;;4205748;28;20044;-61
2021/03/20 09:57:52;;;;;;;12.80;6.40;;;6.80;63.10;;;;;;4205372;28;20082;-67
2021/03/20 09:59:54;;;;;;;12.83;8.17;;;6.20;60.60;;;;;;4189109;28;20101;-61
2021/03/20 10:01:58;;;;;;;10.63;6.00;;;5.80;61.20;;;;;;4205589;28;20104;-69
2021/03/20 10:04:26;;;;;;;9.43;5.80;;;5.50;62.10;;;;;;4205570;28;20102;-63
2021/03/20 10:06:32;;;;;;;10.00;6.23;;;5.30;61.00;;;;;;4206006;28;20051;-68
2021/03/20 10:08:45;;;;;;;11.63;6.33;;;5.00;62.40;;;;;;4205687;28;20066;-56
2021/03/20 10:10:53;;;;;;;9.90;5.77;;;4.80;61.50;;;;;;4205930;28;20089;-60
2021/03/20 10:13:15;;;;;;;15.27;5.73;;;4.70;61.70;;;;;;4205649;28;20028;-60
2021/03/20 10:15:28;;;;;;;12.30;6.43;;;4.60;61.20;;;;;;4205444;28;20093;-61
2021/03/20 10:17:31;;;;;;;11.70;6.20;;;4.50;62.60;;;;;;4188332;28;20286;-65
2021/03/20 10:19:41;;;;;;;9.90;6.10;;;4.30;62.60;;;;;;4188558;28;20323;-61
2021/03/20 10:22:01;;;;;;;10.77;5.68;;;4.10;62.40;;;;;;4194904;28;20298;-67
2021/03/20 10:24:26;;;;;;;10.30;6.00;;;4.10;62.30;;;;;;4205678;28;20081;-64
2021/03/20 10:26:39;;;;;;;12.00;5.90;;;4.30;63.20;;;;;;4199821;28;20293;-60
2021/03/20 10:29:06;;;;;;;7.73;4.77;;;4.50;64.30;;;;;;4205407;28;20257;-58
2021/03/20 10:31:08;;;;;;;5.50;3.20;;;4.60;56.80;;;;;;4203796;28;20281;-62
2021/03/20 10:33:12;;;;;;;7.93;3.80;;;4.30;58.60;;;;;;4205324;28;20840;-68
2021/03/20 10:35:14;;;;;;;10.97;5.30;;;4.10;59.30;;;;;;4204907;28;20334;-60
2021/03/20 10:37:17;;;;;;;9.83;4.77;;;4.00;60.00;;;;;;4204866;28;20280;-63
2021/03/20 10:39:32;;;;;;;8.47;4.60;;;4.00;60.40;;;;;;4205251;28;20268;-65
2021/03/20 10:41:36;;;;;;;9.17;4.60;;;4.10;60.10;;;;;;4204827;28;20276;-64
2021/03/20 10:43:44;;;;;;;8.20;4.77;;;4.10;60.40;;;;;;4204828;28;20771;-62
2021/03/20 10:45:45;;;;;;;4.97;3.17;;;4.00;59.30;;;;;;4203340;28;20338;-57
2021/03/20 10:47:47;;;;;;;4.17;2.67;;;4.00;58.50;;;;;;4203642;28;20857;-60
2021/03/20 10:50:02;;;;;;;8.90;4.20;;;4.10;56.80;;;;;;4205003;28;20269;-61
2021/03/20 10:52:10;;;;;;;6.23;3.43;;;4.10;57.30;;;;;;4203430;28;20837;-61
2021/03/20 10:54:40;;;;;;;6.07;3.20;;;4.10;56.30;;;;;;4204986;28;20318;-62
2021/03/20 10:56:42;;;;;;;7.22;4.35;;;4.00;55.10;;;;;;4202529;28;20273;-64
2021/03/20 10:58:44;;;;;;;9.27;4.87;;;4.00;57.70;;;;;;4204509;28;20106;-61
2021/03/20 11:00:47;;;;;;;9.97;4.47;;;4.10;59.10;;;;;;4204564;28;20671;-61
2021/03/20 11:02:49;;;;;;;4.90;3.87;;;4.30;60.10;;;;;;4205094;28;20257;-62
2021/03/20 11:04:53;;;;;;;7.70;4.53;;;4.30;59.60;;;;;;4204491;28;20294;-64
2021/03/20 11:06:56;;;;;;;17.10;7.90;;;4.50;60.00;;;;;;4204959;28;21068;-61
2021/03/20 11:09:22;;;;;;;8.37;4.47;;;4.60;59.70;;;;;;4204516;28;20325;-61
2021/03/20 11:11:30;;;;;;;7.03;3.90;;;4.80;58.00;;;;;;4203337;28;20786;-60
2021/03/20 11:13:36;;;;;;;5.57;3.50;;;4.80;56.70;;;;;;4204356;28;20318;-61
2021/03/20 11:15:38;;;;;;;11.57;3.77;;;4.60;57.30;;;;;;4204711;28;20644;-61